Time;durP1;ratioP1;P1;durP2;ratioP2;P2;SDS_P1;SDS_P2;PMS_P1;PMS_P2;Temp;Humidity;BMP_temperature;BMP_pressure;BME280_temperature;BME280_humidity;BME280_pressure;Samples;Min_cycle;Max_cycle;Signal;HPM_P1;HPM_P2
2021/08/22 00:00:15;;;;;;;;;26.60;24.80;34.30;25.00;;;;;;687366;28;5971;-84
2021/08/22 00:00:36;;;;;;;;;23.20;23.00;34.40;25.10;;;;;;687661;28;5976;-84
2021/08/22 00:00:57;;;;;;;;;24.20;22.40;34.40;25.10;;;;;;687409;28;6020;-85
2021/08/22 00:01:17;;;;;;;;;22.00;20.25;34.40;25.10;;;;;;687300;28;6589;-84
2021/08/22 00:01:38;;;;;;;;;22.00;21.00;34.40;25.10;;;;;;687283;28;6158;-84
2021/08/22 00:01:59;;;;;;;;;24.00;22.40;34.40;25.00;;;;;;687587;28;5972;-84
2021/08/22 00:02:19;;;;;;;;;21.20;20.60;34.40;25.00;;;;;;687765;28;6139;-84
2021/08/22 00:02:40;;;;;;;;;22.50;22.50;34.40;25.10;;;;;;687387;28;6081;-83
2021/08/22 00:03:01;;;;;;;;;22.50;21.50;34.40;25.10;;;;;;687077;28;6001;-85
2021/08/22 00:03:23;;;;;;;;;29.00;26.00;34.40;25.10;;;;;;687331;28;5960;-85
2021/08/22 00:03:43;;;;;;;;;26.00;23.40;34.40;25.10;;;;;;686172;28;6468;-86
2021/08/22 00:04:04;;;;;;;;;22.50;21.50;34.40;25.10;;;;;;685965;28;5968;-86
2021/08/22 00:04:25;;;;;;;;;24.00;23.00;34.40;25.00;;;;;;686278;28;6162;-87
2021/08/22 00:04:46;;;;;;;;;27.00;26.00;34.40;25.00;;;;;;687015;28;6141;-85
2021/08/22 00:05:10;;;;;;;;;24.60;23.60;34.40;25.00;;;;;;687566;28;6127;-85
2021/08/22 00:05:30;;;;;;;;;22.00;21.50;34.40;25.00;;;;;;687548;28;7225;-84
2021/08/22 00:05:51;;;;;;;;;28.40;26.00;34.40;25.10;;;;;;687408;28;6210;-84
2021/08/22 00:06:12;;;;;;;;;28.00;28.00;34.40;25.10;;;;;;686045;28;5586;-84
2021/08/22 00:06:33;;;;;;;;;24.25;24.25;34.40;25.00;;;;;;685862;28;6649;-85
2021/08/22 00:06:53;;;;;;;;;22.00;21.50;34.40;25.00;;;;;;686228;28;7083;-84
2021/08/22 00:07:14;;;;;;;;;23.00;22.00;34.40;25.00;;;;;;686155;28;6215;-85
2021/08/22 00:07:35;;;;;;;;;22.00;20.00;34.40;25.00;;;;;;686055;28;6059;-86
2021/08/22 00:07:55;;;;;;;;;20.50;20.50;34.40;25.10;;;;;;686247;28;6024;-86
2021/08/22 00:08:17;;;;;;;;;23.50;22.50;34.40;25.00;;;;;;686012;28;6194;-84
2021/08/22 00:08:43;;;;;;;;;27.25;24.25;34.40;25.00;;;;;;686075;28;6436;-85
2021/08/22 00:09:05;;;;;;;;;29.25;27.00;34.40;25.00;;;;;;684422;28;6784;-83
2021/08/22 00:09:26;;;;;;;;;25.60;24.00;34.40;25.00;;;;;;686151;28;6220;-84
2021/08/22 00:09:46;;;;;;;;;24.50;21.50;34.40;25.00;;;;;;686145;28;5966;-83
2021/08/22 00:10:07;;;;;;;;;20.50;20.50;34.40;25.00;;;;;;686377;28;5937;-80
2021/08/22 00:10:28;;;;;;;;;21.00;20.00;34.40;25.10;;;;;;688832;28;6562;-84
2021/08/22 00:10:49;;;;;;;;;22.75;22.75;34.40;25.00;;;;;;688763;28;6205;-85
2021/08/22 00:11:10;;;;;;;;;20.75;20.75;34.40;25.10;;;;;;688724;28;6171;-89
2021/08/22 00:11:31;;;;;;;;;28.25;28.00;34.40;25.10;;;;;;688954;28;6040;-85
2021/08/22 00:11:51;;;;;;;;;25.80;25.80;34.40;25.10;;;;;;688944;28;6302;-85
2021/08/22 00:12:12;;;;;;;;;24.00;23.00;34.40;25.10;;;;;;688940;28;5982;-85
2021/08/22 00:12:33;;;;;;;;;21.40;21.00;34.40;25.10;;;;;;688778;28;5958;-85
2021/08/22 00:12:54;;;;;;;;;20.00;20.00;34.40;25.10;;;;;;685966;28;6111;-84
2021/08/22 00:13:16;;;;;;;;;22.00;22.00;34.40;25.20;;;;;;685933;28;6042;-85
2021/08/22 00:13:37;;;;;;;;;21.80;21.00;34.40;25.20;;;;;;685904;28;7921;-83
2021/08/22 00:13:57;;;;;;;;;23.00;22.00;34.40;25.30;;;;;;686168;28;5902;-82
2021/08/22 00:14:18;;;;;;;;;20.75;20.75;34.40;25.30;;;;;;686054;28;5475;-83
2021/08/22 00:14:39;;;;;;;;;23.20;22.20;34.40;25.40;;;;;;685922;28;6053;-82
2021/08/22 00:15:00;;;;;;;;;22.00;21.00;34.40;25.40;;;;;;686794;28;5940;-82
2021/08/22 00:15:21;;;;;;;;;22.75;22.00;34.40;25.30;;;;;;688767;28;6614;-80
2021/08/22 00:15:41;;;;;;;;;25.00;23.00;34.40;25.30;;;;;;688982;28;6328;-81
2021/08/22 00:16:03;;;;;;;;;24.40;23.00;34.40;25.30;;;;;;688848;28;6070;-83
2021/08/22 00:16:23;;;;;;;;;23.40;23.00;34.40;25.40;;;;;;689159;28;6106;-81
2021/08/22 00:16:45;;;;;;;;;26.67;26.33;34.40;25.30;;;;;;688888;28;6025;-86
2021/08/22 00:17:05;;;;;;;;;25.25;23.25;34.40;25.40;;;;;;688516;28;8287;-83
2021/08/22 00:17:26;;;;;;;;;23.60;21.40;34.40;25.40;;;;;;688900;28;5967;-85
2021/08/22 00:17:47;;;;;;;;;22.20;22.20;34.40;25.50;;;;;;686008;28;5976;-86
2021/08/22 00:18:08;;;;;;;;;20.75;20.75;34.40;25.50;;;;;;685494;28;6965;-88
2021/08/22 00:18:29;;;;;;;;;24.25;23.25;34.40;25.50;;;;;;686002;28;5971;-88
2021/08/22 00:18:50;;;;;;;;;21.25;21.00;34.40;25.50;;;;;;686186;28;6137;-88
2021/08/22 00:19:11;;;;;;;;;25.00;25.00;34.40;25.60;;;;;;688238;28;5886;-89
2021/08/22 00:19:31;;;;;;;;;26.50;25.00;34.40;25.50;;;;;;685985;28;5893;-90
2021/08/22 00:19:52;;;;;;;;;26.50;24.25;34.40;25.50;;;;;;683497;28;5486;-88
2021/08/22 00:20:13;;;;;;;;;25.75;23.75;34.40;25.50;;;;;;680639;28;5990;-89
2021/08/22 00:20:34;;;;;;;;;23.00;21.60;34.40;25.50;;;;;;681157;28;6017;-88
2021/08/22 00:20:55;;;;;;;;;24.60;22.80;34.40;25.50;;;;;;680707;28;6033;-88
2021/08/22 00:21:15;;;;;;;;;27.40;25.80;34.40;25.60;;;;;;681109;28;5970;-90
2021/08/22 00:21:36;;;;;;;;;25.00;25.00;34.40;25.60;;;;;;680838;28;5894;-90
2021/08/22 00:21:57;;;;;;;;;22.20;22.20;34.40;25.50;;;;;;681281;28;6044;-91
2021/08/22 00:22:18;;;;;;;;;23.50;23.00;34.40;25.50;;;;;;680658;28;5759;-89
2021/08/22 00:22:39;;;;;;;;;21.50;21.25;34.40;25.60;;;;;;677803;28;6014;-87
2021/08/22 00:23:00;;;;;;;;;20.00;19.00;34.40;25.50;;;;;;677913;28;5944;-87
2021/08/22 00:23:21;;;;;;;;;20.00;20.00;34.40;25.40;;;;;;677990;29;6190;-87
2021/08/22 00:23:41;;;;;;;;;20.40;20.40;34.50;25.50;;;;;;678927;28;6006;-87
2021/08/22 00:24:07;;;;;;;;;24.75;24.00;34.40;25.30;;;;;;678624;28;5909;-89
2021/08/22 00:24:27;;;;;;;;;22.00;21.00;34.40;25.30;;;;;;679061;28;8194;-88
2021/08/22 00:24:48;;;;;;;;;21.75;21.00;34.50;25.40;;;;;;679062;28;6001;-88
2021/08/22 00:25:12;;;;;;;;;28.00;27.00;34.50;25.40;;;;;;681701;28;5947;-89
2021/08/22 00:25:33;;;;;;;;;21.40;20.40;34.40;25.20;;;;;;683189;28;6156;-88
2021/08/22 00:25:54;;;;;;;;;19.00;18.40;34.50;25.40;;;;;;683232;28;6057;-88
2021/08/22 00:26:14;;;;;;;;;25.00;23.00;34.40;25.20;;;;;;684178;28;6088;-88
2021/08/22 00:26:35;;;;;;;;;24.60;23.60;34.50;25.30;;;;;;683247;28;6084;-90
2021/08/22 00:26:57;;;;;;;;;22.00;21.40;34.50;25.30;;;;;;683359;28;6093;-90
2021/08/22 00:27:17;;;;;;;;;21.75;21.75;34.40;25.20;;;;;;683707;28;5545;-90
2021/08/22 00:27:38;;;;;;;;;20.75;20.75;34.50;25.10;;;;;;683337;28;5996;-87
2021/08/22 00:27:59;;;;;;;;;21.60;21.00;34.40;26.00;;;;;;683419;28;5975;-89
2021/08/22 00:28:20;;;;;;;;;21.00;20.00;34.40;25.00;;;;;;683442;28;5885;-87
2021/08/22 00:28:41;;;;;;;;;22.25;22.25;34.40;25.00;;;;;;680779;28;5879;-89
2021/08/22 00:29:02;;;;;;;;;21.75;20.75;34.40;25.00;;;;;;683412;28;6035;-89
2021/08/22 00:29:23;;;;;;;;;20.00;20.00;34.50;25.00;;;;;;680554;28;6560;-89
2021/08/22 00:29:43;;;;;;;;;20.00;20.00;34.50;25.00;;;;;;678552;28;6211;-89
2021/08/22 00:30:05;;;;;;;;;20.50;20.00;34.40;25.00;;;;;;680669;28;6108;-88
2021/08/22 00:30:25;;;;;;;;;18.60;18.00;34.50;25.00;;;;;;680573;28;7448;-88
2021/08/22 00:30:46;;;;;;;;;21.00;19.00;34.40;25.00;;;;;;680571;28;6183;-88
2021/08/22 00:31:07;;;;;;;;;18.00;17.00;34.40;25.00;;;;;;681042;28;6103;-91
2021/08/22 00:31:28;;;;;;;;;22.00;20.40;34.40;24.90;;;;;;681179;28;6134;-90
2021/08/22 00:31:49;;;;;;;;;20.60;19.60;34.40;24.90;;;;;;683361;28;6022;-89
2021/08/22 00:32:10;;;;;;;;;20.25;19.75;34.40;24.90;;;;;;680650;28;6017;-90
2021/08/22 00:32:31;;;;;;;;;18.40;17.80;34.40;24.90;;;;;;678187;29;6104;-88
2021/08/22 00:32:51;;;;;;;;;20.60;20.00;34.40;24.90;;;;;;676032;29;6045;-89
2021/08/22 00:33:12;;;;;;;;;19.25;18.25;34.40;24.80;;;;;;678510;28;5921;-83
2021/08/22 00:33:33;;;;;;;;;23.60;20.20;34.50;24.90;;;;;;681529;28;6028;-83
2021/08/22 00:33:54;;;;;;;;;23.25;21.50;34.50;24.80;;;;;;683808;28;5969;-82
2021/08/22 00:34:15;;;;;;;;;19.00;18.25;34.40;24.80;;;;;;686029;28;5884;-86
2021/08/22 00:34:36;;;;;;;;;18.00;18.00;34.40;24.70;;;;;;685970;28;6739;-86
2021/08/22 00:34:56;;;;;;;;;17.80;17.80;34.40;24.70;;;;;;686609;28;5959;-87
2021/08/22 00:35:17;;;;;;;;;22.25;20.50;34.50;24.70;;;;;;688831;28;5862;-88
2021/08/22 00:35:38;;;;;;;;;21.00;21.00;34.40;24.60;;;;;;688760;28;5977;-88
2021/08/22 00:35:59;;;;;;;;;21.00;19.00;34.50;24.70;;;;;;688636;28;5960;-89
2021/08/22 00:36:19;;;;;;;;;18.50;18.50;34.50;24.80;;;;;;688691;28;6810;-88
2021/08/22 00:36:40;;;;;;;;;22.00;20.00;34.50;24.90;;;;;;688745;28;5988;-89
2021/08/22 00:37:01;;;;;;;;;19.60;17.60;34.50;24.70;;;;;;686177;28;5961;-89
2021/08/22 00:37:25;;;;;;;;;18.25;17.75;34.50;24.70;;;;;;686233;28;5966;-88
2021/08/22 00:37:46;;;;;;;;;21.00;21.00;34.30;24.50;;;;;;685829;28;8032;-88
2021/08/22 00:38:07;;;;;;;;;19.50;18.50;34.40;24.70;;;;;;686013;28;5859;-88
2021/08/22 00:38:30;;;;;;;;;21.50;19.50;34.50;24.70;;;;;;683487;28;6896;-89
2021/08/22 00:38:51;;;;;;;;;22.00;21.00;34.40;24.70;;;;;;681841;28;6442;-89
2021/08/22 00:39:15;;;;;;;;;21.00;19.60;34.50;24.70;;;;;;680664;28;6871;-88
2021/08/22 00:39:36;;;;;;;;;27.40;26.40;34.50;24.80;;;;;;680528;28;6456;-90
2021/08/22 00:39:57;;;;;;;;;23.75;22.25;34.50;24.90;;;;;;682187;28;5910;-90
2021/08/22 00:40:21;;;;;;;;;27.60;25.60;34.50;24.90;;;;;;683688;28;8841;-89
2021/08/22 00:40:42;;;;;;;;;20.40;19.60;34.50;24.60;;;;;;681584;28;6479;-89
2021/08/22 00:41:03;;;;;;;;;20.00;19.60;34.50;24.70;;;;;;683455;28;6219;-89
2021/08/22 00:41:24;;;;;;;;;19.00;17.00;34.50;24.70;;;;;;681688;28;5998;-88
2021/08/22 00:41:45;;;;;;;;;21.00;19.00;34.50;24.70;;;;;;683208;28;6733;-88
2021/08/22 00:42:05;;;;;;;;;22.00;20.60;34.50;24.60;;;;;;684394;28;6069;-89
2021/08/22 00:42:32;;;;;;;;;24.20;22.80;34.50;24.60;;;;;;686746;28;6026;-89
2021/08/22 00:42:53;;;;;;;;;21.50;21.50;34.50;24.50;;;;;;686206;28;6604;-89
2021/08/22 00:43:13;;;;;;;;;19.00;18.00;34.50;24.70;;;;;;686287;28;7039;-89
2021/08/22 00:43:35;;;;;;;;;20.50;18.50;34.50;24.60;;;;;;686361;28;5899;-88
2021/08/22 00:43:56;;;;;;;;;19.00;17.00;34.50;24.60;;;;;;685954;28;6190;-88
2021/08/22 00:44:17;;;;;;;;;20.00;19.00;34.50;24.70;;;;;;686380;28;5987;-89
2021/08/22 00:44:37;;;;;;;;;19.80;19.20;34.40;24.50;;;;;;683886;28;6133;-89
2021/08/22 00:45:03;;;;;;;;;19.75;18.25;34.40;24.60;;;;;;684063;28;6093;-89
2021/08/22 00:45:23;;;;;;;;;18.50;17.50;34.50;25.50;;;;;;686552;28;6177;-88
2021/08/22 00:45:44;;;;;;;;;20.00;19.50;34.50;24.60;;;;;;686311;28;6203;-90
2021/08/22 00:46:05;;;;;;;;;19.00;18.40;34.60;24.70;;;;;;685927;28;6084;-89
2021/08/22 00:46:26;;;;;;;;;19.00;18.00;34.50;24.50;;;;;;684656;28;5933;-90
2021/08/22 00:46:49;;;;;;;;;20.00;19.40;34.60;24.80;;;;;;686868;28;6032;-87
2021/08/22 00:47:10;;;;;;;;;19.60;18.60;34.50;24.60;;;;;;684112;28;8507;-89
2021/08/22 00:47:31;;;;;;;;;21.00;21.00;34.50;24.50;;;;;;684966;28;5958;-88
2021/08/22 00:47:52;;;;;;;;;22.00;22.00;34.60;24.60;;;;;;684905;28;6157;-88
2021/08/22 00:48:12;;;;;;;;;21.50;19.75;34.50;24.60;;;;;;685317;28;6101;-89
2021/08/22 00:48:38;;;;;;;;;20.00;18.50;34.50;24.50;;;;;;687434;28;6337;-87
2021/08/22 00:48:59;;;;;;;;;22.50;21.25;34.60;24.40;;;;;;686766;28;6997;-89
2021/08/22 00:49:27;;;;;;;;;19.00;18.40;34.50;24.70;;;;;;684558;28;6003;-90
2021/08/22 00:49:48;;;;;;;;;21.60;20.00;34.60;24.70;;;;;;685970;28;6806;-89
2021/08/22 00:50:19;;;;;;;;;21.50;20.00;34.50;24.80;;;;;;683139;28;5891;-90
2021/08/22 00:50:40;;;;;;;;;23.75;21.00;34.60;24.70;;;;;;683239;28;6209;-88
2021/08/22 00:51:01;;;;;;;;;20.60;20.40;34.60;25.00;;;;;;683401;28;6101;-89
2021/08/22 00:51:22;;;;;;;;;19.75;19.75;34.50;24.80;;;;;;683445;28;6005;-89
2021/08/22 00:51:43;;;;;;;;;22.00;19.00;34.60;24.70;;;;;;683369;28;6178;-88
2021/08/22 00:52:05;;;;;;;;;20.00;18.00;34.60;24.80;;;;;;682249;28;6750;-88
2021/08/22 00:52:32;;;;;;;;;19.60;19.60;34.50;24.70;;;;;;683280;28;6636;-87
2021/08/22 00:52:53;;;;;;;;;18.50;18.25;34.50;24.70;;;;;;684801;28;6236;-87
2021/08/22 00:53:14;;;;;;;;;22.40;19.80;34.50;24.90;;;;;;684744;28;6143;-88
2021/08/22 00:53:40;;;;;;;;;27.00;21.00;34.50;24.70;;;;;;686064;28;6045;-89
2021/08/22 00:54:02;;;;;;;;;24.40;22.00;34.60;24.90;;;;;;683196;28;6181;-89
2021/08/22 00:54:22;;;;;;;;;19.60;18.60;34.60;24.70;;;;;;685212;28;6873;-90
2021/08/22 00:54:43;;;;;;;;;24.25;24.00;34.60;24.90;;;;;;686149;28;5865;-90
2021/08/22 00:55:06;;;;;;;;;22.00;21.00;34.60;24.90;;;;;;684414;28;5865;-89
2021/08/22 00:55:26;;;;;;;;;19.25;19.25;34.60;24.60;;;;;;685895;28;8803;-88
2021/08/22 00:55:49;;;;;;;;;21.00;19.50;34.50;24.80;;;;;;686078;28;6879;-88
2021/08/22 00:56:10;;;;;;;;;21.60;20.40;34.60;24.80;;;;;;684035;28;9706;-88
2021/08/22 00:56:43;;;;;;;;;19.00;19.00;34.60;25.70;;;;;;686007;28;8554;-89
2021/08/22 00:57:04;;;;;;;;;22.40;21.00;34.60;24.80;;;;;;685675;28;6627;-87
2021/08/22 00:57:25;;;;;;;;;20.00;19.00;34.60;25.00;;;;;;686168;28;5970;-88
2021/08/22 00:57:49;;;;;;;;;21.00;19.33;34.60;25.10;;;;;;686090;28;5975;-89
2021/08/22 00:58:09;;;;;;;;;20.40;19.00;34.50;24.90;;;;;;688158;28;6218;-88
2021/08/22 00:58:33;;;;;;;;;19.60;18.60;34.60;25.20;;;;;;688950;28;6795;-89
2021/08/22 00:58:53;;;;;;;;;17.20;17.20;34.50;24.80;;;;;;688470;28;7675;-88
2021/08/22 00:59:17;;;;;;;;;18.60;17.60;34.50;24.80;;;;;;685453;28;6084;-87
2021/08/22 00:59:41;;;;;;;;;19.00;19.00;34.50;24.80;;;;;;685330;28;7073;-88
2021/08/22 01:00:14;;;;;;;;;19.00;19.00;34.50;24.80;;;;;;685740;28;6150;-91
2021/08/22 01:00:37;;;;;;;;;20.60;20.60;34.60;24.70;;;;;;685939;28;8524;-87
2021/08/22 01:00:59;;;;;;;;;20.00;19.00;34.50;24.90;;;;;;688547;28;6689;-89
2021/08/22 01:01:25;;;;;;;;;20.25;19.25;34.40;24.50;;;;;;688743;28;6530;-88
2021/08/22 01:01:49;;;;;;;;;25.60;22.80;34.60;25.00;;;;;;688399;28;6272;-88
2021/08/22 01:02:18;;;;;;;;;24.25;23.50;34.60;24.90;;;;;;685801;28;8691;-89
2021/08/22 01:03:12;;;;;;;;;19.60;18.20;34.60;24.70;;;;;;685859;28;6242;-89
2021/08/22 01:03:49;;;;;;;;;21.00;20.00;34.50;24.90;;;;;;685771;28;6930;-88
2021/08/22 01:04:23;;;;;;;;;22.25;18.75;34.60;24.90;;;;;;688261;28;8074;-87
2021/08/22 01:04:53;;;;;;;;;21.00;19.60;34.50;24.80;;;;;;688446;28;8119;-86
2021/08/22 01:05:42;;;;;;;;;23.00;22.80;34.50;24.60;;;;;;688791;28;6234;-88
2021/08/22 01:06:12;;;;;;;;;23.80;21.40;34.50;24.80;;;;;;685861;28;6277;-86
2021/08/22 01:07:01;;;;;;;;;21.50;20.50;34.50;24.80;;;;;;686074;28;6654;-85
2021/08/22 01:07:44;;;;;;;;;24.80;24.00;34.50;25.00;;;;;;685910;28;8031;-86
2021/08/22 01:08:41;;;;;;;;;20.00;18.00;34.40;25.00;;;;;;685944;28;6535;-85
2021/08/22 01:09:08;;;;;;;;;22.00;21.00;34.50;25.00;;;;;;680356;28;6154;-88
2021/08/22 01:09:35;;;;;;;;;21.20;20.40;34.40;25.00;;;;;;680378;28;8457;-87
2021/08/22 01:09:56;;;;;;;;;18.50;18.00;34.50;25.20;;;;;;679983;28;8004;-87
2021/08/22 01:10:23;;;;;;;;;20.60;20.60;34.40;25.00;;;;;;680466;28;6478;-87
2021/08/22 01:10:45;;;;;;;;;26.75;26.25;34.50;25.20;;;;;;677820;29;6664;-87
2021/08/22 01:11:11;;;;;;;;;22.25;21.25;34.50;24.90;;;;;;676218;29;7056;-88
2021/08/22 01:11:35;;;;;;;;;22.75;21.75;34.50;25.00;;;;;;680487;28;6720;-86
2021/08/22 01:12:01;;;;;;;;;23.80;22.80;34.50;25.20;;;;;;676173;29;8687;-86
2021/08/22 01:12:28;;;;;;;;;22.50;21.50;34.50;25.10;;;;;;675332;29;8409;-86
2021/08/22 01:12:59;;;;;;;;;18.20;18.20;34.40;25.00;;;;;;677819;29;7638;-87
2021/08/22 01:13:24;;;;;;;;;19.20;19.00;34.50;25.00;;;;;;677667;29;6295;-86
2021/08/22 01:13:54;;;;;;;;;21.50;20.50;34.50;25.00;;;;;;677945;29;6576;-86
2021/08/22 01:14:21;;;;;;;;;23.00;21.00;34.50;25.10;;;;;;679535;28;6280;-87
2021/08/22 01:14:47;;;;;;;;;23.80;22.00;34.40;25.20;;;;;;680461;28;6259;-86
2021/08/22 01:15:11;;;;;;;;;23.00;19.60;34.40;25.00;;;;;;677706;29;6609;-87
2021/08/22 01:15:38;;;;;;;;;20.00;19.00;34.40;25.10;;;;;;675113;29;6768;-88
2021/08/22 01:16:00;;;;;;;;;20.00;18.50;34.50;25.20;;;;;;675113;29;8811;-88
2021/08/22 01:16:23;;;;;;;;;18.80;17.80;34.40;25.20;;;;;;675010;29;8334;-87
2021/08/22 01:16:52;;;;;;;;;22.60;20.60;34.40;25.20;;;;;;675254;29;7085;-87
2021/08/22 01:17:14;;;;;;;;;21.20;20.20;34.50;25.30;;;;;;675055;29;6448;-87
2021/08/22 01:17:39;;;;;;;;;21.00;21.00;34.50;25.10;;;;;;677684;29;7621;-87
2021/08/22 01:18:01;;;;;;;;;18.00;18.00;34.40;25.20;;;;;;677568;29;8226;-86
2021/08/22 01:18:25;;;;;;;;;20.00;19.00;34.40;24.90;;;;;;675100;29;9697;-87
2021/08/22 01:18:49;;;;;;;;;22.00;20.00;34.40;25.30;;;;;;675043;29;6691;-86
2021/08/22 01:19:41;;;;;;;;;21.25;21.00;34.40;25.30;;;;;;677295;29;6543;-87
2021/08/22 01:20:23;;;;;;;;;18.75;18.25;34.40;25.10;;;;;;681567;28;7548;-87
2021/08/22 01:21:14;;;;;;;;;20.00;19.40;34.50;25.20;;;;;;678050;28;6625;-86
2021/08/22 01:21:35;;;;;;;;;18.20;17.60;34.40;25.10;;;;;;680357;29;6418;-86
2021/08/22 01:21:59;;;;;;;;;19.20;18.00;34.40;25.30;;;;;;677710;29;7342;-85
2021/08/22 01:22:23;;;;;;;;;20.40;19.40;34.40;25.40;;;;;;677757;29;6958;-86
2021/08/22 01:22:46;;;;;;;;;23.00;22.00;34.40;25.20;;;;;;677378;29;8703;-86
2021/08/22 01:23:08;;;;;;;;;22.20;20.60;34.40;25.30;;;;;;677679;29;7953;-85
2021/08/22 01:23:29;;;;;;;;;20.40;19.40;34.40;25.10;;;;;;677685;29;7071;-86
2021/08/22 01:23:54;;;;;;;;;21.60;20.20;34.40;25.20;;;;;;677738;29;6228;-87
2021/08/22 01:24:19;;;;;;;;;22.50;21.00;34.40;24.90;;;;;;677564;29;6970;-87
2021/08/22 01:24:41;;;;;;;;;21.20;18.60;34.40;25.00;;;;;;679432;29;8519;-87
2021/08/22 01:25:03;;;;;;;;;18.60;18.20;34.40;25.00;;;;;;679451;28;6190;-86
2021/08/22 01:25:24;;;;;;;;;19.00;19.00;34.50;25.10;;;;;;678293;29;9753;-87
2021/08/22 01:25:46;;;;;;;;;21.00;20.50;34.40;24.90;;;;;;678262;29;6352;-87
2021/08/22 01:26:08;;;;;;;;;22.25;20.25;34.50;25.30;;;;;;678190;29;6673;-87
2021/08/22 01:26:36;;;;;;;;;19.00;19.00;34.40;25.10;;;;;;677275;29;8637;-87
2021/08/22 01:26:59;;;;;;;;;23.00;21.60;34.50;25.20;;;;;;677603;29;7084;-88
2021/08/22 01:27:21;;;;;;;;;21.40;21.40;34.50;25.10;;;;;;680070;28;6235;-86
2021/08/22 01:27:43;;;;;;;;;19.80;19.00;34.50;25.20;;;;;;680816;28;8106;-87
2021/08/22 01:28:06;;;;;;;;;23.50;20.00;34.50;25.00;;;;;;680125;28;6586;-86
2021/08/22 01:28:28;;;;;;;;;24.20;21.60;34.40;25.10;;;;;;678915;28;6645;-88
2021/08/22 01:28:50;;;;;;;;;19.60;18.00;34.50;24.90;;;;;;678157;29;6378;-87
2021/08/22 01:29:13;;;;;;;;;20.00;19.00;34.50;25.10;;;;;;678356;29;6373;-86
2021/08/22 01:29:55;;;;;;;;;19.25;19.25;34.50;25.30;;;;;;679769;28;6585;-87
2021/08/22 01:30:18;;;;;;;;;20.20;20.20;34.50;25.00;;;;;;680892;28;7019;-87
2021/08/22 01:30:43;;;;;;;;;20.00;19.40;34.40;25.10;;;;;;680717;28;8777;-86
2021/08/22 01:31:09;;;;;;;;;25.60;25.00;34.50;25.10;;;;;;680973;28;6582;-86
2021/08/22 01:31:40;;;;;;;;;21.40;19.80;34.50;25.10;;;;;;680577;28;6289;-85
2021/08/22 01:32:02;;;;;;;;;24.00;21.75;34.50;25.30;;;;;;681620;28;6668;-86
2021/08/22 01:32:23;;;;;;;;;23.75;22.25;34.50;25.40;;;;;;683261;28;7367;-85
2021/08/22 01:32:47;;;;;;;;;23.25;23.00;34.50;25.30;;;;;;681215;28;5980;-85
2021/08/22 01:33:15;;;;;;;;;21.00;19.60;34.50;25.30;;;;;;680908;28;6473;-86
2021/08/22 01:33:38;;;;;;;;;21.20;19.80;34.50;25.10;;;;;;683622;28;7424;-86
2021/08/22 01:34:01;;;;;;;;;20.00;18.00;34.50;25.00;;;;;;683512;28;6735;-86
2021/08/22 01:34:23;;;;;;;;;19.40;19.40;34.40;24.90;;;;;;683693;28;6434;-87
2021/08/22 01:34:45;;;;;;;;;23.60;22.60;34.50;25.30;;;;;;683238;28;8315;-86
2021/08/22 01:35:09;;;;;;;;;20.50;20.00;34.50;25.30;;;;;;681007;28;6456;-85
2021/08/22 01:35:31;;;;;;;;;18.75;18.75;34.40;25.00;;;;;;683247;28;6459;-85
2021/08/22 01:35:53;;;;;;;;;23.75;23.00;34.40;24.90;;;;;;682137;28;6825;-86
2021/08/22 01:36:14;;;;;;;;;25.20;22.80;34.40;24.90;;;;;;680968;28;6467;-88
2021/08/22 01:36:36;;;;;;;;;23.25;23.00;34.50;25.00;;;;;;682382;28;6263;-87
2021/08/22 01:36:59;;;;;;;;;22.40;21.20;34.50;25.20;;;;;;683271;28;6045;-85
2021/08/22 01:37:19;;;;;;;;;21.50;21.50;34.50;25.30;;;;;;683803;28;7300;-86
2021/08/22 01:37:42;;;;;;;;;23.00;20.00;34.50;25.30;;;;;;680844;28;6017;-87
2021/08/22 01:38:04;;;;;;;;;19.40;18.40;34.50;25.50;;;;;;678026;29;6737;-85
2021/08/22 01:38:25;;;;;;;;;21.00;21.00;34.40;25.30;;;;;;678207;29;7396;-85
2021/08/22 01:38:47;;;;;;;;;22.00;20.25;34.40;25.10;;;;;;678077;29;5989;-85
2021/08/22 01:39:09;;;;;;;;;22.00;20.20;34.40;25.10;;;;;;678272;29;6412;-85
2021/08/22 01:39:31;;;;;;;;;21.00;20.00;34.40;25.00;;;;;;679477;28;6930;-86
2021/08/22 01:39:53;;;;;;;;;19.00;18.00;34.40;25.20;;;;;;682217;28;6711;-86
2021/08/22 01:40:17;;;;;;;;;22.00;21.40;34.40;25.20;;;;;;682565;28;6719;-87
2021/08/22 01:40:40;;;;;;;;;24.00;22.00;34.40;25.30;;;;;;680826;28;6481;-87
2021/08/22 01:41:02;;;;;;;;;24.25;23.25;34.50;25.40;;;;;;678269;29;6861;-87
2021/08/22 01:41:24;;;;;;;;;21.00;21.00;34.40;25.20;;;;;;680946;28;8160;-87
2021/08/22 01:41:47;;;;;;;;;24.00;22.50;34.40;26.30;;;;;;678309;29;6662;-86
2021/08/22 01:42:10;;;;;;;;;23.40;22.80;34.40;25.30;;;;;;678338;29;6314;-86
2021/08/22 01:42:33;;;;;;;;;21.50;20.50;34.40;26.30;;;;;;678357;29;6518;-85
2021/08/22 01:42:54;;;;;;;;;18.75;18.50;34.40;25.20;;;;;;680110;28;6309;-86
2021/08/22 01:43:17;;;;;;;;;21.75;21.00;34.40;25.20;;;;;;679569;28;6020;-86
2021/08/22 01:43:39;;;;;;;;;21.00;21.00;34.40;25.20;;;;;;679622;28;8468;-87
2021/08/22 01:44:00;;;;;;;;;21.20;20.00;34.40;25.00;;;;;;685207;28;8271;-87
2021/08/22 01:44:22;;;;;;;;;21.00;20.40;34.40;25.20;;;;;;686348;28;8443;-87
2021/08/22 01:44:44;;;;;;;;;24.00;22.20;34.40;25.20;;;;;;686440;28;6182;-85
2021/08/22 01:45:06;;;;;;;;;21.50;21.50;34.40;25.20;;;;;;686341;28;5888;-86
2021/08/22 01:45:28;;;;;;;;;23.25;22.25;34.40;25.10;;;;;;683203;28;8273;-86
2021/08/22 01:45:57;;;;;;;;;19.00;19.00;34.40;25.20;;;;;;684464;28;8632;-87
2021/08/22 01:46:30;;;;;;;;;22.00;21.00;34.40;25.70;;;;;;684288;28;6258;-87
2021/08/22 01:46:52;;;;;;;;;20.40;20.00;34.40;25.70;;;;;;683312;28;6301;-86
2021/08/22 01:47:13;;;;;;;;;22.40;20.00;34.40;25.60;;;;;;686955;28;6579;-85
2021/08/22 01:47:36;;;;;;;;;24.00;23.00;34.30;25.60;;;;;;688814;28;6058;-86
2021/08/22 01:47:59;;;;;;;;;21.80;21.80;34.30;25.60;;;;;;686441;28;6642;-87
2021/08/22 01:48:20;;;;;;;;;21.50;20.50;34.30;25.60;;;;;;685903;28;8486;-86
2021/08/22 01:48:41;;;;;;;;;24.80;23.00;34.30;25.70;;;;;;683690;28;6114;-87
2021/08/22 01:49:05;;;;;;;;;20.00;19.00;34.30;25.70;;;;;;683361;28;6071;-88
2021/08/22 01:49:26;;;;;;;;;18.75;18.75;34.30;26.40;;;;;;683352;28;8070;-86
2021/08/22 01:49:47;;;;;;;;;18.60;18.40;34.30;25.60;;;;;;683825;28;6620;-87
2021/08/22 01:50:11;;;;;;;;;19.20;19.20;34.20;25.50;;;;;;683615;28;6028;-88
2021/08/22 01:50:32;;;;;;;;;18.25;18.00;34.20;25.60;;;;;;680931;28;11003;-88
2021/08/22 01:50:59;;;;;;;;;18.25;18.25;34.20;25.60;;;;;;681157;28;6249;-87
2021/08/22 01:51:21;;;;;;;;;25.40;23.00;34.20;25.60;;;;;;682784;28;6633;-86
2021/08/22 01:51:42;;;;;;;;;23.60;22.60;34.20;25.60;;;;;;683780;28;6101;-86
2021/08/22 01:52:03;;;;;;;;;21.00;20.00;34.20;25.60;;;;;;685644;28;5903;-86
2021/08/22 01:52:25;;;;;;;;;19.60;18.60;34.20;25.60;;;;;;686644;28;6617;-87
2021/08/22 01:52:49;;;;;;;;;21.00;21.00;34.20;26.40;;;;;;686289;28;8573;-87
2021/08/22 01:53:12;;;;;;;;;26.60;25.80;34.20;25.50;;;;;;683607;28;6414;-88
2021/08/22 01:53:34;;;;;;;;;24.75;24.25;34.20;25.50;;;;;;683829;28;7694;-88
2021/08/22 01:53:59;;;;;;;;;21.40;20.40;34.20;25.60;;;;;;685370;28;8919;-86
2021/08/22 01:54:19;;;;;;;;;17.40;17.40;34.20;25.60;;;;;;683485;28;6603;-86
2021/08/22 01:54:43;;;;;;;;;23.00;21.25;34.20;25.50;;;;;;685603;28;5889;-87
2021/08/22 01:55:05;;;;;;;;;23.00;22.00;34.20;25.50;;;;;;686334;28;6786;-88
2021/08/22 01:55:26;;;;;;;;;23.00;23.00;34.20;25.50;;;;;;685951;28;6890;-87
2021/08/22 01:55:46;;;;;;;;;20.60;19.00;34.20;25.60;;;;;;685038;28;6046;-86
2021/08/22 01:56:07;;;;;;;;;20.80;19.80;34.20;25.50;;;;;;686083;28;6000;-84
2021/08/22 01:56:31;;;;;;;;;20.60;20.00;34.20;25.50;;;;;;683504;28;6028;-86
2021/08/22 01:56:52;;;;;;;;;20.00;20.00;34.20;25.50;;;;;;683146;28;6331;-87
2021/08/22 01:57:13;;;;;;;;;20.00;19.60;34.20;25.50;;;;;;684505;28;6649;-84
2021/08/22 01:57:37;;;;;;;;;21.60;18.60;34.20;25.50;;;;;;684036;28;6223;-83
2021/08/22 01:57:58;;;;;;;;;19.40;19.40;34.20;25.50;;;;;;686485;28;6356;-85
2021/08/22 01:58:21;;;;;;;;;20.00;20.00;34.20;25.50;;;;;;686478;28;6238;-87
2021/08/22 01:58:42;;;;;;;;;22.40;21.40;34.20;25.40;;;;;;687369;28;6132;-86
2021/08/22 01:59:02;;;;;;;;;24.00;21.00;34.20;25.50;;;;;;689132;28;6072;-86
2021/08/22 01:59:23;;;;;;;;;22.50;21.00;34.20;25.40;;;;;;689280;28;5912;-85
2021/08/22 01:59:44;;;;;;;;;19.00;19.00;34.20;25.40;;;;;;688334;28;6089;-86
2021/08/22 02:00:06;;;;;;;;;23.80;22.80;34.20;25.40;;;;;;688967;28;6558;-87
2021/08/22 02:00:26;;;;;;;;;24.40;22.00;34.20;25.40;;;;;;689062;28;8145;-86
2021/08/22 02:00:50;;;;;;;;;25.00;23.50;34.20;25.40;;;;;;689122;28;5955;-86